sensor_id;sensor_type;location;lat;lon;timestamp;P1;durP1;ratioP1;P2;durP2;ratioP2
42964;SDS011;28604;51.204;22.552;2024-01-06T00:01:51;45.03;;;20.00;;
42964;SDS011;28604;51.204;22.552;2024-01-06T00:04:17;42.85;;;20.65;;
42964;SDS011;28604;51.204;22.552;2024-01-06T00:06:43;38.92;;;19.95;;
42964;SDS011;28604;51.204;22.552;2024-01-06T00:09:08;43.00;;;20.67;;
42964;SDS011;28604;51.204;22.552;2024-01-06T00:11:34;43.78;;;19.90;;
42964;SDS011;28604;51.204;22.552;2024-01-06T00:14:00;38.40;;;18.70;;
42964;SDS011;28604;51.204;22.552;2024-01-06T00:16:26;41.60;;;19.05;;
42964;SDS011;28604;51.204;22.552;2024-01-06T00:18:52;46.55;;;18.58;;
42964;SDS011;28604;51.204;22.552;2024-01-06T00:21:18;36.58;;;17.05;;
42964;SDS011;28604;51.204;22.552;2024-01-06T00:23:44;35.88;;;16.10;;
42964;SDS011;28604;51.204;22.552;2024-01-06T00:26:10;30.95;;;13.82;;
42964;SDS011;28604;51.204;22.552;2024-01-06T00:28:36;30.13;;;14.18;;
42964;SDS011;28604;51.204;22.552;2024-01-06T00:31:02;25.45;;;12.82;;
42964;SDS011;28604;51.204;22.552;2024-01-06T00:33:29;31.20;;;14.38;;
42964;SDS011;28604;51.204;22.552;2024-01-06T00:35:55;25.77;;;11.23;;
42964;SDS011;28604;51.204;22.552;2024-01-06T00:38:21;24.95;;;12.98;;
42964;SDS011;28604;51.204;22.552;2024-01-06T00:40:47;27.63;;;12.35;;
42964;SDS011;28604;51.204;22.552;2024-01-06T00:43:13;26.83;;;12.10;;
42964;SDS011;28604;51.204;22.552;2024-01-06T00:45:39;23.55;;;12.65;;
42964;SDS011;28604;51.204;22.552;2024-01-06T00:48:05;24.00;;;12.32;;
42964;SDS011;28604;51.204;22.552;2024-01-06T00:50:31;25.65;;;11.85;;
42964;SDS011;28604;51.204;22.552;2024-01-06T00:52:57;23.27;;;11.18;;
42964;SDS011;28604;51.204;22.552;2024-01-06T00:55:23;24.30;;;11.20;;
42964;SDS011;28604;51.204;22.552;2024-01-06T00:57:50;21.98;;;11.05;;
42964;SDS011;28604;51.204;22.552;2024-01-06T01:00:16;23.50;;;11.35;;
42964;SDS011;28604;51.204;22.552;2024-01-06T01:02:42;26.30;;;12.38;;
42964;SDS011;28604;51.204;22.552;2024-01-06T01:05:08;25.02;;;11.88;;
42964;SDS011;28604;51.204;22.552;2024-01-06T01:07:34;26.60;;;11.48;;
42964;SDS011;28604;51.204;22.552;2024-01-06T01:10:00;26.83;;;12.15;;
42964;SDS011;28604;51.204;22.552;2024-01-06T01:12:26;23.55;;;11.63;;
42964;SDS011;28604;51.204;22.552;2024-01-06T01:14:52;22.27;;;11.55;;
42964;SDS011;28604;51.204;22.552;2024-01-06T01:17:18;21.98;;;11.05;;
42964;SDS011;28604;51.204;22.552;2024-01-06T01:19:45;23.02;;;11.63;;
42964;SDS011;28604;51.204;22.552;2024-01-06T01:22:11;29.92;;;12.35;;
42964;SDS011;28604;51.204;22.552;2024-01-06T01:24:38;22.38;;;12.55;;
42964;SDS011;28604;51.204;22.552;2024-01-06T01:27:04;27.45;;;12.90;;
42964;SDS011;28604;51.204;22.552;2024-01-06T01:29:30;31.35;;;15.13;;
42964;SDS011;28604;51.204;22.552;2024-01-06T01:31:56;28.33;;;14.77;;
42964;SDS011;28604;51.204;22.552;2024-01-06T01:34:22;26.50;;;13.80;;
42964;SDS011;28604;51.204;22.552;2024-01-06T01:36:48;30.50;;;14.57;;
42964;SDS011;28604;51.204;22.552;2024-01-06T01:39:14;21.33;;;12.57;;
42964;SDS011;28604;51.204;22.552;2024-01-06T01:41:40;24.83;;;12.25;;
42964;SDS011;28604;51.204;22.552;2024-01-06T01:44:07;22.45;;;11.70;;
42964;SDS011;28604;51.204;22.552;2024-01-06T01:46:32;21.00;;;12.27;;
42964;SDS011;28604;51.204;22.552;2024-01-06T01:48:59;25.30;;;12.63;;
42964;SDS011;28604;51.204;22.552;2024-01-06T01:51:27;22.70;;;12.88;;
42964;SDS011;28604;51.204;22.552;2024-01-06T01:53:55;26.60;;;12.10;;
42964;SDS011;28604;51.204;22.552;2024-01-06T01:56:25;22.20;;;10.38;;
42964;SDS011;28604;51.204;22.552;2024-01-06T01:58:51;23.50;;;12.05;;
42964;SDS011;28604;51.204;22.552;2024-01-06T02:01:18;18.58;;;11.07;;
42964;SDS011;28604;51.204;22.552;2024-01-06T02:03:44;17.00;;;10.65;;
42964;SDS011;28604;51.204;22.552;2024-01-06T02:06:10;21.83;;;11.50;;
42964;SDS011;28604;51.204;22.552;2024-01-06T02:08:37;24.75;;;11.90;;
42964;SDS011;28604;51.204;22.552;2024-01-06T02:11:04;19.45;;;11.13;;
42964;SDS011;28604;51.204;22.552;2024-01-06T02:13:33;19.85;;;11.82;;
42964;SDS011;28604;51.204;22.552;2024-01-06T02:16:00;20.92;;;12.50;;
42964;SDS011;28604;51.204;22.552;2024-01-06T02:18:27;23.55;;;12.38;;
42964;SDS011;28604;51.204;22.552;2024-01-06T02:20:53;19.55;;;11.88;;
42964;SDS011;28604;51.204;22.552;2024-01-06T02:23:23;18.25;;;11.70;;
42964;SDS011;28604;51.204;22.552;2024-01-06T02:25:49;23.10;;;12.23;;
42964;SDS011;28604;51.204;22.552;2024-01-06T02:28:15;19.83;;;12.68;;
42964;SDS011;28604;51.204;22.552;2024-01-06T02:30:41;18.92;;;11.90;;
42964;SDS011;28604;51.204;22.552;2024-01-06T02:33:07;22.83;;;11.85;;
42964;SDS011;28604;51.204;22.552;2024-01-06T02:35:33;17.77;;;10.60;;
42964;SDS011;28604;51.204;22.552;2024-01-06T02:37:59;18.63;;;11.30;;
42964;SDS011;28604;51.204;22.552;2024-01-06T02:40:25;20.10;;;11.18;;
42964;SDS011;28604;51.204;22.552;2024-01-06T02:42:51;20.77;;;11.27;;
42964;SDS011;28604;51.204;22.552;2024-01-06T02:45:16;18.30;;;11.32;;
42964;SDS011;28604;51.204;22.552;2024-01-06T02:47:42;20.17;;;11.82;;
42964;SDS011;28604;51.204;22.552;2024-01-06T02:50:08;18.95;;;10.75;;
42964;SDS011;28604;51.204;22.552;2024-01-06T02:52:34;19.55;;;10.85;;
42964;SDS011;28604;51.204;22.552;2024-01-06T02:55:00;21.63;;;11.77;;
42964;SDS011;28604;51.204;22.552;2024-01-06T02:57:27;17.30;;;10.45;;
42964;SDS011;28604;51.204;22.552;2024-01-06T02:59:54;18.95;;;11.82;;
42964;SDS011;28604;51.204;22.552;2024-01-06T03:02:20;19.05;;;12.70;;
42964;SDS011;28604;51.204;22.552;2024-01-06T03:04:46;21.42;;;11.75;;
42964;SDS011;28604;51.204;22.552;2024-01-06T03:07:12;19.75;;;11.43;;
42964;SDS011;28604;51.204;22.552;2024-01-06T03:09:38;20.85;;;11.35;;
42964;SDS011;28604;51.204;22.552;2024-01-06T03:12:05;18.30;;;11.90;;
42964;SDS011;28604;51.204;22.552;2024-01-06T03:14:35;19.75;;;11.48;;
42964;SDS011;28604;51.204;22.552;2024-01-06T03:17:01;22.48;;;13.02;;
42964;SDS011;28604;51.204;22.552;2024-01-06T03:19:28;17.00;;;11.25;;
42964;SDS011;28604;51.204;22.552;2024-01-06T03:21:54;19.27;;;11.00;;
42964;SDS011;28604;51.204;22.552;2024-01-06T03:24:20;19.20;;;11.07;;
42964;SDS011;28604;51.204;22.552;2024-01-06T03:26:48;20.15;;;10.75;;
42964;SDS011;28604;51.204;22.552;2024-01-06T03:29:13;20.30;;;10.45;;
42964;SDS011;28604;51.204;22.552;2024-01-06T03:31:46;17.08;;;11.15;;
42964;SDS011;28604;51.204;22.552;2024-01-06T03:34:12;19.13;;;11.45;;
42964;SDS011;28604;51.204;22.552;2024-01-06T03:36:38;19.27;;;11.13;;
42964;SDS011;28604;51.204;22.552;2024-01-06T03:39:05;15.35;;;9.77;;
42964;SDS011;28604;51.204;22.552;2024-01-06T03:41:31;20.98;;;11.10;;
42964;SDS011;28604;51.204;22.552;2024-01-06T03:43:57;16.98;;;10.75;;
42964;SDS011;28604;51.204;22.552;2024-01-06T03:46:24;14.80;;;10.15;;
42964;SDS011;28604;51.204;22.552;2024-01-06T03:48:50;17.85;;;10.25;;
42964;SDS011;28604;51.204;22.552;2024-01-06T03:51:16;22.15;;;11.48;;
42964;SDS011;28604;51.204;22.552;2024-01-06T03:53:42;17.23;;;8.98;;
42964;SDS011;28604;51.204;22.552;2024-01-06T03:56:08;11.88;;;8.90;;
42964;SDS011;28604;51.204;22.552;2024-01-06T03:58:34;15.40;;;9.45;;
42964;SDS011;28604;51.204;22.552;2024-01-06T04:01:00;15.82;;;8.63;;
42964;SDS011;28604;51.204;22.552;2024-01-06T04:03:26;14.63;;;8.82;;
42964;SDS011;28604;51.204;22.552;2024-01-06T04:05:52;13.43;;;8.55;;
42964;SDS011;28604;51.204;22.552;2024-01-06T04:08:18;14.77;;;8.32;;
42964;SDS011;28604;51.204;22.552;2024-01-06T04:10:44;14.93;;;8.30;;
42964;SDS011;28604;51.204;22.552;2024-01-06T04:13:11;13.65;;;9.63;;
42964;SDS011;28604;51.204;22.552;2024-01-06T04:15:37;15.07;;;8.98;;
42964;SDS011;28604;51.204;22.552;2024-01-06T04:18:04;13.48;;;8.15;;
42964;SDS011;28604;51.204;22.552;2024-01-06T04:20:31;16.67;;;9.40;;
42964;SDS011;28604;51.204;22.552;2024-01-06T04:22:57;12.32;;;8.40;;
42964;SDS011;28604;51.204;22.552;2024-01-06T04:25:24;14.35;;;8.93;;
42964;SDS011;28604;51.204;22.552;2024-01-06T04:27:50;17.60;;;9.35;;
42964;SDS011;28604;51.204;22.552;2024-01-06T04:30:16;15.18;;;8.00;;
42964;SDS011;28604;51.204;22.552;2024-01-06T04:32:42;16.73;;;10.00;;
42964;SDS011;28604;51.204;22.552;2024-01-06T04:35:09;18.23;;;9.98;;
42964;SDS011;28604;51.204;22.552;2024-01-06T04:37:35;13.52;;;9.65;;
42964;SDS011;28604;51.204;22.552;2024-01-06T04:40:01;16.95;;;10.40;;
42964;SDS011;28604;51.204;22.552;2024-01-06T04:42:27;17.70;;;11.00;;
42964;SDS011;28604;51.204;22.552;2024-01-06T04:44:54;20.42;;;11.88;;
42964;SDS011;28604;51.204;22.552;2024-01-06T04:47:19;21.50;;;12.18;;
42964;SDS011;28604;51.204;22.552;2024-01-06T04:49:45;22.48;;;12.02;;
42964;SDS011;28604;51.204;22.552;2024-01-06T04:52:11;18.77;;;12.30;;
42964;SDS011;28604;51.204;22.552;2024-01-06T04:54:37;25.30;;;13.65;;
42964;SDS011;28604;51.204;22.552;2024-01-06T04:57:03;22.75;;;12.90;;
42964;SDS011;28604;51.204;22.552;2024-01-06T04:59:30;21.30;;;13.32;;
42964;SDS011;28604;51.204;22.552;2024-01-06T05:01:56;20.10;;;13.35;;
42964;SDS011;28604;51.204;22.552;2024-01-06T05:04:23;21.33;;;13.00;;
42964;SDS011;28604;51.204;22.552;2024-01-06T05:06:51;21.83;;;12.55;;
42964;SDS011;28604;51.204;22.552;2024-01-06T05:09:17;20.15;;;12.98;;
42964;SDS011;28604;51.204;22.552;2024-01-06T05:11:44;20.67;;;12.32;;
42964;SDS011;28604;51.204;22.552;2024-01-06T05:14:10;24.55;;;12.98;;
42964;SDS011;28604;51.204;22.552;2024-01-06T05:16:36;27.17;;;14.82;;
42964;SDS011;28604;51.204;22.552;2024-01-06T05:19:02;26.35;;;13.40;;
42964;SDS011;28604;51.204;22.552;2024-01-06T05:21:29;26.23;;;14.07;;
42964;SDS011;28604;51.204;22.552;2024-01-06T05:23:55;26.13;;;14.32;;
42964;SDS011;28604;51.204;22.552;2024-01-06T05:26:21;29.00;;;13.98;;
42964;SDS011;28604;51.204;22.552;2024-01-06T05:28:47;26.83;;;14.52;;
42964;SDS011;28604;51.204;22.552;2024-01-06T05:31:13;25.13;;;14.10;;
42964;SDS011;28604;51.204;22.552;2024-01-06T05:33:39;24.65;;;15.07;;
42964;SDS011;28604;51.204;22.552;2024-01-06T05:36:05;21.20;;;13.25;;
42964;SDS011;28604;51.204;22.552;2024-01-06T05:38:31;25.58;;;15.00;;
42964;SDS011;28604;51.204;22.552;2024-01-06T05:40:57;26.75;;;14.32;;
42964;SDS011;28604;51.204;22.552;2024-01-06T05:43:23;26.30;;;14.57;;
42964;SDS011;28604;51.204;22.552;2024-01-06T05:45:49;24.40;;;14.25;;
42964;SDS011;28604;51.204;22.552;2024-01-06T05:48:15;21.98;;;13.32;;
42964;SDS011;28604;51.204;22.552;2024-01-06T05:50:41;20.35;;;13.02;;
42964;SDS011;28604;51.204;22.552;2024-01-06T05:53:07;17.80;;;11.98;;
42964;SDS011;28604;51.204;22.552;2024-01-06T05:55:33;28.52;;;14.40;;
42964;SDS011;28604;51.204;22.552;2024-01-06T05:57:59;19.75;;;13.10;;
42964;SDS011;28604;51.204;22.552;2024-01-06T06:00:26;18.60;;;11.65;;
42964;SDS011;28604;51.204;22.552;2024-01-06T06:02:52;20.05;;;12.63;;
42964;SDS011;28604;51.204;22.552;2024-01-06T06:05:18;20.88;;;12.82;;
42964;SDS011;28604;51.204;22.552;2024-01-06T06:07:45;21.15;;;12.75;;
42964;SDS011;28604;51.204;22.552;2024-01-06T06:10:11;23.95;;;13.82;;
42964;SDS011;28604;51.204;22.552;2024-01-06T06:12:38;20.30;;;12.65;;
42964;SDS011;28604;51.204;22.552;2024-01-06T06:15:04;20.48;;;12.93;;
42964;SDS011;28604;51.204;22.552;2024-01-06T06:17:31;20.10;;;11.75;;
42964;SDS011;28604;51.204;22.552;2024-01-06T06:19:58;18.70;;;11.88;;
42964;SDS011;28604;51.204;22.552;2024-01-06T06:22:25;19.85;;;12.00;;
42964;SDS011;28604;51.204;22.552;2024-01-06T06:27:23;19.25;;;11.50;;
42964;SDS011;28604;51.204;22.552;2024-01-06T06:29:49;20.33;;;12.05;;
42964;SDS011;28604;51.204;22.552;2024-01-06T06:32:15;18.75;;;11.75;;
42964;SDS011;28604;51.204;22.552;2024-01-06T06:34:42;18.90;;;11.68;;
42964;SDS011;28604;51.204;22.552;2024-01-06T06:37:08;16.23;;;9.98;;
42964;SDS011;28604;51.204;22.552;2024-01-06T06:39:34;18.38;;;10.73;;
42964;SDS011;28604;51.204;22.552;2024-01-06T06:42:01;16.77;;;10.98;;
42964;SDS011;28604;51.204;22.552;2024-01-06T06:44:27;18.27;;;12.02;;
42964;SDS011;28604;51.204;22.552;2024-01-06T06:46:55;19.35;;;11.57;;
42964;SDS011;28604;51.204;22.552;2024-01-06T06:49:21;19.85;;;11.25;;
42964;SDS011;28604;51.204;22.552;2024-01-06T06:51:47;19.95;;;12.15;;
42964;SDS011;28604;51.204;22.552;2024-01-06T06:54:14;18.75;;;11.02;;
42964;SDS011;28604;51.204;22.552;2024-01-06T06:56:41;18.13;;;10.35;;
42964;SDS011;28604;51.204;22.552;2024-01-06T06:59:07;21.25;;;11.38;;
42964;SDS011;28604;51.204;22.552;2024-01-06T07:01:33;29.33;;;12.30;;
42964;SDS011;28604;51.204;22.552;2024-01-06T07:04:00;27.40;;;12.35;;
42964;SDS011;28604;51.204;22.552;2024-01-06T07:06:28;16.35;;;10.18;;
42964;SDS011;28604;51.204;22.552;2024-01-06T07:08:54;20.48;;;11.07;;
42964;SDS011;28604;51.204;22.552;2024-01-06T07:11:21;22.17;;;10.95;;
42964;SDS011;28604;51.204;22.552;2024-01-06T07:13:46;20.25;;;11.20;;
42964;SDS011;28604;51.204;22.552;2024-01-06T07:16:12;23.23;;;11.57;;
42964;SDS011;28604;51.204;22.552;2024-01-06T07:18:38;22.38;;;11.35;;
42964;SDS011;28604;51.204;22.552;2024-01-06T07:21:05;25.42;;;12.27;;
42964;SDS011;28604;51.204;22.552;2024-01-06T07:23:34;20.55;;;11.13;;
42964;SDS011;28604;51.204;22.552;2024-01-06T07:26:00;24.95;;;11.75;;
42964;SDS011;28604;51.204;22.552;2024-01-06T07:28:26;18.10;;;11.70;;
42964;SDS011;28604;51.204;22.552;2024-01-06T07:30:52;21.70;;;12.90;;
42964;SDS011;28604;51.204;22.552;2024-01-06T07:33:18;19.60;;;11.48;;
42964;SDS011;28604;51.204;22.552;2024-01-06T07:35:44;16.63;;;11.18;;
42964;SDS011;28604;51.204;22.552;2024-01-06T07:38:11;18.25;;;11.25;;
42964;SDS011;28604;51.204;22.552;2024-01-06T07:40:37;15.75;;;10.77;;
42964;SDS011;28604;51.204;22.552;2024-01-06T07:43:04;16.65;;;10.73;;
42964;SDS011;28604;51.204;22.552;2024-01-06T07:45:30;17.25;;;10.45;;
42964;SDS011;28604;51.204;22.552;2024-01-06T07:47:57;17.27;;;10.50;;
42964;SDS011;28604;51.204;22.552;2024-01-06T07:50:27;18.02;;;12.25;;
42964;SDS011;28604;51.204;22.552;2024-01-06T07:52:53;21.23;;;11.32;;
42964;SDS011;28604;51.204;22.552;2024-01-06T07:55:19;20.13;;;11.68;;
42964;SDS011;28604;51.204;22.552;2024-01-06T07:57:45;23.60;;;13.45;;
42964;SDS011;28604;51.204;22.552;2024-01-06T08:00:12;21.67;;;12.35;;
42964;SDS011;28604;51.204;22.552;2024-01-06T08:02:42;22.45;;;12.45;;
42964;SDS011;28604;51.204;22.552;2024-01-06T08:05:08;21.30;;;12.52;;
42964;SDS011;28604;51.204;22.552;2024-01-06T08:07:35;24.35;;;13.05;;
42964;SDS011;28604;51.204;22.552;2024-01-06T08:10:01;25.77;;;13.70;;
42964;SDS011;28604;51.204;22.552;2024-01-06T08:12:30;23.35;;;14.07;;
42964;SDS011;28604;51.204;22.552;2024-01-06T08:14:56;25.77;;;13.90;;
42964;SDS011;28604;51.204;22.552;2024-01-06T08:17:22;21.40;;;13.25;;
42964;SDS011;28604;51.204;22.552;2024-01-06T08:19:48;21.55;;;14.30;;
42964;SDS011;28604;51.204;22.552;2024-01-06T08:22:14;23.90;;;14.45;;
42964;SDS011;28604;51.204;22.552;2024-01-06T08:24:40;24.25;;;14.98;;
42964;SDS011;28604;51.204;22.552;2024-01-06T08:27:06;26.73;;;15.45;;
42964;SDS011;28604;51.204;22.552;2024-01-06T08:29:32;20.58;;;12.93;;
42964;SDS011;28604;51.204;22.552;2024-01-06T08:31:58;22.35;;;13.18;;
42964;SDS011;28604;51.204;22.552;2024-01-06T08:34:24;20.85;;;12.50;;
42964;SDS011;28604;51.204;22.552;2024-01-06T08:36:50;23.02;;;12.25;;
42964;SDS011;28604;51.204;22.552;2024-01-06T08:39:16;19.25;;;12.40;;
42964;SDS011;28604;51.204;22.552;2024-01-06T08:41:42;25.15;;;14.07;;
42964;SDS011;28604;51.204;22.552;2024-01-06T08:44:08;24.63;;;15.02;;
42964;SDS011;28604;51.204;22.552;2024-01-06T08:46:34;26.23;;;15.27;;
42964;SDS011;28604;51.204;22.552;2024-01-06T08:49:02;26.48;;;14.43;;
42964;SDS011;28604;51.204;22.552;2024-01-06T08:51:29;22.83;;;14.43;;
42964;SDS011;28604;51.204;22.552;2024-01-06T08:53:56;22.50;;;12.13;;
42964;SDS011;28604;51.204;22.552;2024-01-06T08:56:22;16.58;;;10.63;;
42964;SDS011;28604;51.204;22.552;2024-01-06T08:58:48;19.65;;;11.15;;
42964;SDS011;28604;51.204;22.552;2024-01-06T09:01:14;17.60;;;11.23;;
42964;SDS011;28604;51.204;22.552;2024-01-06T09:03:40;19.15;;;10.15;;
42964;SDS011;28604;51.204;22.552;2024-01-06T09:06:06;21.38;;;10.90;;
42964;SDS011;28604;51.204;22.552;2024-01-06T09:08:32;25.27;;;11.40;;
42964;SDS011;28604;51.204;22.552;2024-01-06T09:10:58;19.63;;;10.70;;
42964;SDS011;28604;51.204;22.552;2024-01-06T09:13:24;15.40;;;10.30;;
42964;SDS011;28604;51.204;22.552;2024-01-06T09:15:51;17.50;;;10.90;;
42964;SDS011;28604;51.204;22.552;2024-01-06T09:18:17;19.30;;;11.40;;
42964;SDS011;28604;51.204;22.552;2024-01-06T09:20:43;20.05;;;11.98;;
42964;SDS011;28604;51.204;22.552;2024-01-06T09:23:09;18.77;;;12.40;;
42964;SDS011;28604;51.204;22.552;2024-01-06T09:25:36;20.85;;;12.15;;
42964;SDS011;28604;51.204;22.552;2024-01-06T09:28:02;16.58;;;10.45;;
42964;SDS011;28604;51.204;22.552;2024-01-06T09:30:28;17.60;;;10.73;;
42964;SDS011;28604;51.204;22.552;2024-01-06T09:32:53;23.40;;;10.98;;
42964;SDS011;28604;51.204;22.552;2024-01-06T09:35:20;19.48;;;11.55;;
42964;SDS011;28604;51.204;22.552;2024-01-06T09:37:45;19.60;;;11.48;;
42964;SDS011;28604;51.204;22.552;2024-01-06T09:40:12;20.92;;;12.05;;
42964;SDS011;28604;51.204;22.552;2024-01-06T09:42:41;18.40;;;10.57;;
42964;SDS011;28604;51.204;22.552;2024-01-06T09:45:07;19.17;;;11.73;;
42964;SDS011;28604;51.204;22.552;2024-01-06T09:47:34;17.50;;;10.82;;
42964;SDS011;28604;51.204;22.552;2024-01-06T09:50:01;21.60;;;11.80;;
42964;SDS011;28604;51.204;22.552;2024-01-06T09:52:29;23.88;;;11.10;;
42964;SDS011;28604;51.204;22.552;2024-01-06T09:54:58;19.85;;;11.75;;
42964;SDS011;28604;51.204;22.552;2024-01-06T09:57:27;20.75;;;12.45;;
42964;SDS011;28604;51.204;22.552;2024-01-06T09:59:53;20.40;;;11.48;;
42964;SDS011;28604;51.204;22.552;2024-01-06T10:02:21;18.67;;;9.77;;
42964;SDS011;28604;51.204;22.552;2024-01-06T10:04:48;18.88;;;11.00;;
42964;SDS011;28604;51.204;22.552;2024-01-06T10:07:14;23.45;;;11.52;;
42964;SDS011;28604;51.204;22.552;2024-01-06T10:09:41;17.65;;;10.90;;
42964;SDS011;28604;51.204;22.552;2024-01-06T10:12:09;19.85;;;11.85;;
42964;SDS011;28604;51.204;22.552;2024-01-06T10:14:36;16.98;;;10.40;;
42964;SDS011;28604;51.204;22.552;2024-01-06T10:17:05;20.45;;;10.45;;
42964;SDS011;28604;51.204;22.552;2024-01-06T10:19:33;15.48;;;9.65;;
42964;SDS011;28604;51.204;22.552;2024-01-06T10:22:00;17.58;;;10.77;;
42964;SDS011;28604;51.204;22.552;2024-01-06T10:24:28;18.33;;;11.15;;
42964;SDS011;28604;51.204;22.552;2024-01-06T10:26:55;20.58;;;11.50;;
42964;SDS011;28604;51.204;22.552;2024-01-06T10:29:21;24.60;;;13.25;;
42964;SDS011;28604;51.204;22.552;2024-01-06T10:31:46;25.60;;;12.43;;
42964;SDS011;28604;51.204;22.552;2024-01-06T10:34:13;23.17;;;11.25;;
42964;SDS011;28604;51.204;22.552;2024-01-06T10:36:40;20.50;;;11.77;;
42964;SDS011;28604;51.204;22.552;2024-01-06T10:39:06;22.55;;;12.55;;
42964;SDS011;28604;51.204;22.552;2024-01-06T10:41:32;24.90;;;12.35;;
42964;SDS011;28604;51.204;22.552;2024-01-06T10:44:01;22.15;;;12.70;;
42964;SDS011;28604;51.204;22.552;2024-01-06T10:46:29;21.30;;;12.27;;
42964;SDS011;28604;51.204;22.552;2024-01-06T10:48:57;22.95;;;11.95;;
42964;SDS011;28604;51.204;22.552;2024-01-06T10:51:25;26.50;;;12.25;;
42964;SDS011;28604;51.204;22.552;2024-01-06T10:53:52;23.20;;;12.77;;
42964;SDS011;28604;51.204;22.552;2024-01-06T10:56:18;23.67;;;11.45;;
42964;SDS011;28604;51.204;22.552;2024-01-06T10:58:46;20.88;;;11.27;;
42964;SDS011;28604;51.204;22.552;2024-01-06T11:01:15;24.70;;;12.68;;
42964;SDS011;28604;51.204;22.552;2024-01-06T11:03:45;28.48;;;13.60;;
42964;SDS011;28604;51.204;22.552;2024-01-06T11:06:12;22.60;;;12.77;;
42964;SDS011;28604;51.204;22.552;2024-01-06T11:08:50;25.20;;;14.02;;
42964;SDS011;28604;51.204;22.552;2024-01-06T11:11:26;21.48;;;11.30;;
42964;SDS011;28604;51.204;22.552;2024-01-06T11:13:53;25.17;;;12.80;;
42964;SDS011;28604;51.204;22.552;2024-01-06T11:16:45;24.52;;;11.38;;
42964;SDS011;28604;51.204;22.552;2024-01-06T11:22:30;20.77;;;11.07;;
42964;SDS011;28604;51.204;22.552;2024-01-06T11:25:05;22.77;;;11.88;;
42964;SDS011;28604;51.204;22.552;2024-01-06T11:27:32;23.55;;;12.77;;
42964;SDS011;28604;51.204;22.552;2024-01-06T11:30:01;20.95;;;10.75;;
42964;SDS011;28604;51.204;22.552;2024-01-06T11:32:31;23.45;;;11.73;;
42964;SDS011;28604;51.204;22.552;2024-01-06T11:40:51;18.50;;;11.30;;
42964;SDS011;28604;51.204;22.552;2024-01-06T11:45:38;23.67;;;12.38;;
42964;SDS011;28604;51.204;22.552;2024-01-06T11:48:07;18.42;;;10.95;;
42964;SDS011;28604;51.204;22.552;2024-01-06T11:50:36;18.08;;;10.05;;
42964;SDS011;28604;51.204;22.552;2024-01-06T11:53:03;21.27;;;12.02;;
42964;SDS011;28604;51.204;22.552;2024-01-06T11:55:30;23.15;;;11.05;;
42964;SDS011;28604;51.204;22.552;2024-01-06T11:58:00;24.75;;;12.43;;
42964;SDS011;28604;51.204;22.552;2024-01-06T12:00:31;23.52;;;11.80;;
42964;SDS011;28604;51.204;22.552;2024-01-06T12:02:58;20.92;;;11.35;;
42964;SDS011;28604;51.204;22.552;2024-01-06T12:05:26;25.38;;;11.65;;
42964;SDS011;28604;51.204;22.552;2024-01-06T12:07:57;21.75;;;11.43;;
42964;SDS011;28604;51.204;22.552;2024-01-06T12:10:24;22.30;;;11.85;;
42964;SDS011;28604;51.204;22.552;2024-01-06T12:12:54;22.52;;;12.10;;
42964;SDS011;28604;51.204;22.552;2024-01-06T12:15:43;25.30;;;13.10;;
42964;SDS011;28604;51.204;22.552;2024-01-06T12:18:08;24.15;;;12.60;;
42964;SDS011;28604;51.204;22.552;2024-01-06T12:20:34;19.77;;;11.25;;
42964;SDS011;28604;51.204;22.552;2024-01-06T12:23:01;18.65;;;10.85;;
42964;SDS011;28604;51.204;22.552;2024-01-06T12:25:31;17.90;;;11.35;;
42964;SDS011;28604;51.204;22.552;2024-01-06T12:28:01;20.70;;;10.95;;
42964;SDS011;28604;51.204;22.552;2024-01-06T12:30:27;20.33;;;10.80;;
42964;SDS011;28604;51.204;22.552;2024-01-06T12:32:55;21.83;;;11.35;;
42964;SDS011;28604;51.204;22.552;2024-01-06T12:35:21;19.30;;;12.27;;
42964;SDS011;28604;51.204;22.552;2024-01-06T12:37:48;17.45;;;11.02;;
42964;SDS011;28604;51.204;22.552;2024-01-06T12:40:15;18.38;;;11.60;;
42964;SDS011;28604;51.204;22.552;2024-01-06T12:42:42;17.05;;;10.15;;
42964;SDS011;28604;51.204;22.552;2024-01-06T12:45:09;18.23;;;10.30;;
42964;SDS011;28604;51.204;22.552;2024-01-06T12:47:35;19.25;;;11.32;;
42964;SDS011;28604;51.204;22.552;2024-01-06T12:50:02;19.10;;;11.73;;
42964;SDS011;28604;51.204;22.552;2024-01-06T12:52:29;25.98;;;13.10;;
42964;SDS011;28604;51.204;22.552;2024-01-06T12:54:55;25.55;;;13.32;;
42964;SDS011;28604;51.204;22.552;2024-01-06T12:57:21;24.30;;;13.25;;
42964;SDS011;28604;51.204;22.552;2024-01-06T12:59:47;22.30;;;11.70;;
42964;SDS011;28604;51.204;22.552;2024-01-06T13:02:13;19.52;;;11.25;;
42964;SDS011;28604;51.204;22.552;2024-01-06T13:04:39;19.92;;;10.68;;
42964;SDS011;28604;51.204;22.552;2024-01-06T13:07:05;16.63;;;10.63;;
42964;SDS011;28604;51.204;22.552;2024-01-06T13:09:31;20.63;;;11.18;;
42964;SDS011;28604;51.204;22.552;2024-01-06T13:11:58;21.23;;;12.40;;
42964;SDS011;28604;51.204;22.552;2024-01-06T13:14:28;25.10;;;13.00;;
42964;SDS011;28604;51.204;22.552;2024-01-06T13:16:55;16.58;;;10.88;;
42964;SDS011;28604;51.204;22.552;2024-01-06T13:19:21;21.27;;;12.15;;
42964;SDS011;28604;51.204;22.552;2024-01-06T13:21:47;22.77;;;12.32;;
42964;SDS011;28604;51.204;22.552;2024-01-06T13:24:13;20.67;;;11.75;;
42964;SDS011;28604;51.204;22.552;2024-01-06T13:26:39;19.48;;;11.20;;
42964;SDS011;28604;51.204;22.552;2024-01-06T13:29:05;19.33;;;11.25;;
42964;SDS011;28604;51.204;22.552;2024-01-06T13:31:31;19.48;;;10.52;;
42964;SDS011;28604;51.204;22.552;2024-01-06T13:33:58;20.40;;;11.13;;
42964;SDS011;28604;51.204;22.552;2024-01-06T13:36:24;18.25;;;10.57;;
42964;SDS011;28604;51.204;22.552;2024-01-06T13:38:50;16.55;;;10.23;;
42964;SDS011;28604;51.204;22.552;2024-01-06T13:41:16;18.13;;;10.85;;
42964;SDS011;28604;51.204;22.552;2024-01-06T13:43:42;20.08;;;11.65;;
42964;SDS011;28604;51.204;22.552;2024-01-06T13:46:08;24.25;;;12.85;;
42964;SDS011;28604;51.204;22.552;2024-01-06T13:48:36;22.17;;;12.85;;
42964;SDS011;28604;51.204;22.552;2024-01-06T13:51:01;23.25;;;11.82;;
42964;SDS011;28604;51.204;22.552;2024-01-06T13:53:28;23.33;;;13.13;;
42964;SDS011;28604;51.204;22.552;2024-01-06T13:55:54;21.00;;;12.43;;
42964;SDS011;28604;51.204;22.552;2024-01-06T13:58:20;19.33;;;10.68;;
42964;SDS011;28604;51.204;22.552;2024-01-06T14:00:46;24.50;;;12.20;;
42964;SDS011;28604;51.204;22.552;2024-01-06T14:03:13;26.80;;;12.35;;
42964;SDS011;28604;51.204;22.552;2024-01-06T14:05:40;27.13;;;12.93;;
42964;SDS011;28604;51.204;22.552;2024-01-06T14:08:06;27.10;;;15.40;;
42964;SDS011;28604;51.204;22.552;2024-01-06T14:10:32;26.10;;;13.18;;
42964;SDS011;28604;51.204;22.552;2024-01-06T14:12:58;21.85;;;11.40;;
42964;SDS011;28604;51.204;22.552;2024-01-06T14:15:24;22.88;;;12.00;;
42964;SDS011;28604;51.204;22.552;2024-01-06T14:17:52;27.10;;;12.65;;
42964;SDS011;28604;51.204;22.552;2024-01-06T14:20:18;20.48;;;11.38;;